Aérodrome :
LOGIN :

S'inscrire | Disclaimer

   EN    FR    IT 

 










Légende :    VFR   VFR Marginal   IFR   IFR Intensif   IFR Très Intensif
Visi : 
Plafond : 
>= 8 km
>= 3000ft
5 à 8 km
1000 à 3000 ft
1500m à 5 km
500 à 1000 ft
800 à 1500m
200 à 500 ft
< 800m
< 200 ft
Symboles :   Orages  Brouillard  Fortes neiges  Fortes précipitations  Vent > 20 kt
SIGMETs :   Divers  Orages  Givrage  Turbulence  Onde Orograph.  Cendres Volcan.






- Altitude de l'aérodrome : 123 ft
- Code IATA : BLQ


LIPE - Bologna Guglielmo Marconi

DERNIER METAR :
  • 032120Z 07006KT CAVOK 28/17 Q1015

METARs EXPIRÉS :
  • 032050Z 08005KT CAVOK 28/17 Q1015
  • 032020Z 09005KT CAVOK 29/17 Q1015
  • 031950Z 08007KT CAVOK 30/18 Q1014
  • 031920Z 06007KT 020V090 CAVOK 31/17 Q1014
  • 031850Z 02004KT CAVOK 33/14 Q1014
  • 031820Z 02003KT CAVOK 34/14 Q1014

TAF TAF LIPE
Valide du 03 à 18h jusqu'au 04 à 18h UTC


031700Z 0318/0418 08010KT CAVOK
BECMG 0323/0401 VRB05KT
BECMG 0408/0410 08010KT



MET'MAP, la Météo Aéronautique d'un coup d'oeil ! - Copyright ORBIFLY Décembre 2007 - Disclaimer

ORBIFLY MET'MAP TEAM :

Programmation & Développement : Alexandra Zaïnal
Sur une idée originale de : Baudouin d'Aumeries
Soutien technique & logistique : Manuel Goepfert
Assistance : Marc-Olivier Méhu




SOURCES & CREDITS :

   NOAA